Time;durP1;ratioP1;P1;durP2;ratioP2;P2;SDS_P1;SDS_P2;PMS_P1;PMS_P2;Temp;Humidity;BMP_temperature;BMP_pressure;BME280_temperature;BME280_humidity;BME280_pressure;Samples;Min_cycle;Max_cycle;Signal;HPM_P1;HPM_P2
2023/07/31 00:00:34;;;;;;;8.27;4.80;;;17.10;91.90;;;;;;5040993;28;20033;-81
2023/07/31 00:03:00;;;;;;;6.75;4.85;;;17.10;91.90;;;;;;5057163;28;20036;-80
2023/07/31 00:05:26;;;;;;;8.73;4.60;;;17.10;91.80;;;;;;5040057;28;20049;-79
2023/07/31 00:07:53;;;;;;;7.13;4.55;;;17.20;91.70;;;;;;5065324;28;20020;-80
2023/07/31 00:10:19;;;;;;;7.68;4.45;;;17.20;91.50;;;;;;5057884;28;20032;-80
2023/07/31 00:12:45;;;;;;;12.30;4.32;;;17.20;91.40;;;;;;5039981;28;20025;-78
2023/07/31 00:15:13;;;;;;;7.13;4.70;;;17.30;91.40;;;;;;5035826;28;20489;-80
2023/07/31 00:17:38;;;;;;;6.80;4.32;;;17.30;91.60;;;;;;5058347;28;20037;-78
2023/07/31 00:20:05;;;;;;;10.35;4.72;;;17.30;91.30;;;;;;5071698;28;20172;-78
2023/07/31 00:22:31;;;;;;;7.00;4.50;;;17.30;91.30;;;;;;5067587;28;20025;-79
2023/07/31 00:24:57;;;;;;;7.38;4.38;;;17.30;91.40;;;;;;5061350;28;20028;-80
2023/07/31 00:27:23;;;;;;;7.95;4.45;;;17.30;91.40;;;;;;5044366;28;20079;-80
2023/07/31 00:29:49;;;;;;;7.88;4.32;;;17.20;91.30;;;;;;5026026;28;20024;-78
2023/07/31 00:32:15;;;;;;;10.52;5.05;;;17.20;91.40;;;;;;5044302;28;20051;-78
2023/07/31 00:34:44;;;;;;;9.82;4.80;;;17.20;91.50;;;;;;5055640;28;20089;-80
2023/07/31 00:37:10;;;;;;;6.57;4.20;;;17.20;91.60;;;;;;5040975;28;20065;-79
2023/07/31 00:39:36;;;;;;;6.15;4.65;;;17.10;91.60;;;;;;5036473;28;20474;-79
2023/07/31 00:42:02;;;;;;;9.18;4.25;;;17.10;91.70;;;;;;5053570;28;20021;-79
2023/07/31 00:44:28;;;;;;;7.43;4.38;;;17.10;91.80;;;;;;5053564;28;20021;-81
2023/07/31 00:46:54;;;;;;;8.25;5.00;;;17.10;91.90;;;;;;5033997;28;20109;-79
2023/07/31 00:49:21;;;;;;;6.88;4.20;;;17.00;91.80;;;;;;5044473;28;20024;-79
2023/07/31 00:51:47;;;;;;;12.43;4.90;;;17.10;91.90;;;;;;5038080;28;20025;-79
2023/07/31 00:54:13;;;;;;;13.07;5.07;;;17.00;92.00;;;;;;5056902;28;20100;-81
2023/07/31 00:56:41;;;;;;;8.00;4.05;;;17.00;92.10;;;;;;5056511;28;20037;-79
2023/07/31 00:59:07;;;;;;;7.50;4.30;;;16.90;92.10;;;;;;5035385;28;20454;-79
2023/07/31 01:01:33;;;;;;;7.18;4.68;;;16.90;92.10;;;;;;5053846;28;20048;-78
2023/07/31 01:03:59;;;;;;;5.80;3.88;;;16.90;92.20;;;;;;5053273;28;20414;-79
2023/07/31 01:06:57;;;;;;;6.05;4.05;;;16.90;92.30;;;;;;5054382;28;20017;-80
2023/07/31 01:09:39;;;;;;;9.63;4.60;;;16.90;92.40;;;;;;5050615;28;20051;-79
2023/07/31 01:12:07;;;;;;;7.40;4.25;;;16.90;92.40;;;;;;5053144;28;20083;-80
2023/07/31 01:14:33;;;;;;;5.35;3.70;;;16.80;92.60;;;;;;5035004;28;20495;-81
2023/07/31 01:16:59;;;;;;;6.32;4.38;;;16.80;92.80;;;;;;5053099;28;20044;-79
2023/07/31 01:19:30;;;;;;;5.45;3.58;;;16.80;92.70;;;;;;5052687;28;20482;-79
2023/07/31 01:22:12;;;;;;;6.05;3.90;;;16.80;92.80;;;;;;5052831;28;20025;-80
2023/07/31 01:25:05;;;;;;;6.63;4.00;;;16.80;92.70;;;;;;5050487;28;20071;-80
2023/07/31 01:27:37;;;;;;;6.32;4.25;;;16.80;92.80;;;;;;5037139;28;20390;-79
2023/07/31 01:30:14;;;;;;;8.27;4.00;;;16.70;92.90;;;;;;5055999;28;20021;-80
2023/07/31 01:32:42;;;;;;;5.72;4.28;;;16.70;93.10;;;;;;5047789;28;20064;-79
2023/07/31 01:35:08;;;;;;;6.95;4.18;;;16.70;93.10;;;;;;5052572;28;20512;-80
2023/07/31 01:37:34;;;;;;;8.35;4.28;;;16.70;93.30;;;;;;5042693;28;20028;-79
2023/07/31 01:40:00;;;;;;;6.63;4.15;;;16.70;93.30;;;;;;5054514;28;20548;-80
2023/07/31 01:42:26;;;;;;;8.77;4.28;;;16.60;93.30;;;;;;5052785;28;20016;-79
2023/07/31 01:44:52;;;;;;;7.78;4.35;;;16.60;93.20;;;;;;5052678;28;20056;-79
2023/07/31 01:47:18;;;;;;;8.27;4.70;;;16.60;93.20;;;;;;5052492;28;20147;-80
2023/07/31 01:49:44;;;;;;;5.63;4.07;;;16.60;93.20;;;;;;5052939;28;20171;-79
2023/07/31 01:52:10;;;;;;;7.65;4.30;;;16.70;93.30;;;;;;5053592;28;20029;-81
2023/07/31 01:54:36;;;;;;;6.40;3.88;;;16.70;93.30;;;;;;5046640;28;20027;-80
2023/07/31 01:57:02;;;;;;;7.53;4.10;;;16.70;93.40;;;;;;5052605;28;20541;-81
2023/07/31 01:59:28;;;;;;;10.00;4.65;;;16.70;93.50;;;;;;5043514;28;20147;-79
2023/07/31 02:01:54;;;;;;;8.77;4.65;;;16.70;93.50;;;;;;5049556;28;20095;-80
2023/07/31 02:04:20;;;;;;;6.32;4.38;;;16.70;93.50;;;;;;5055496;28;20045;-80
2023/07/31 02:06:46;;;;;;;8.82;4.95;;;16.70;93.70;;;;;;5042385;28;20021;-80
2023/07/31 02:09:12;;;;;;;11.50;5.10;;;16.80;93.60;;;;;;5052104;28;20028;-80
2023/07/31 02:11:38;;;;;;;11.18;5.40;;;16.80;93.60;;;;;;5037788;28;20044;-80
2023/07/31 02:14:04;;;;;;;7.07;5.05;;;16.80;93.70;;;;;;5052167;28;20655;-81
2023/07/31 02:16:29;;;;;;;9.68;4.93;;;16.80;93.70;;;;;;5052174;28;20025;-82
2023/07/31 02:18:55;;;;;;;8.60;4.93;;;16.90;94.00;;;;;;5037517;28;20506;-81
2023/07/31 02:21:21;;;;;;;7.72;5.00;;;16.90;93.70;;;;;;5054648;28;20090;-79
2023/07/31 02:23:47;;;;;;;7.55;5.03;;;16.90;93.70;;;;;;5051917;28;20475;-81
2023/07/31 02:26:13;;;;;;;5.50;4.90;;;16.90;93.60;;;;;;5052681;28;20155;-79
2023/07/31 02:28:39;;;;;;;11.15;5.75;;;17.00;93.60;;;;;;5038721;28;20021;-80
2023/07/31 02:31:05;;;;;;;8.50;4.88;;;17.00;93.50;;;;;;5037652;28;20455;-80
2023/07/31 02:33:31;;;;;;;12.00;5.25;;;17.00;93.40;;;;;;5056717;28;20022;-79
2023/07/31 02:35:57;;;;;;;8.35;4.95;;;17.10;93.20;;;;;;5053319;28;20147;-80
2023/07/31 02:38:23;;;;;;;8.93;5.38;;;17.10;93.20;;;;;;5052916;28;20033;-80
2023/07/31 02:40:48;;;;;;;9.75;4.63;;;17.20;93.20;;;;;;5033695;28;20058;-80
2023/07/31 02:43:14;;;;;;;7.82;4.60;;;17.20;93.30;;;;;;5034044;28;20032;-80
2023/07/31 02:45:40;;;;;;;7.88;4.70;;;17.30;93.10;;;;;;5033964;28;20457;-79
2023/07/31 02:48:06;;;;;;;9.32;4.45;;;17.30;93.00;;;;;;5055137;28;20025;-80
2023/07/31 02:50:33;;;;;;;9.95;5.22;;;17.40;92.80;;;;;;5052642;28;20466;-79
2023/07/31 02:52:58;;;;;;;6.20;4.23;;;17.50;92.60;;;;;;5051549;28;20078;-80
2023/07/31 02:55:24;;;;;;;10.00;4.78;;;17.60;92.50;;;;;;5033781;28;20021;-80
2023/07/31 02:57:52;;;;;;;7.05;4.25;;;17.70;92.20;;;;;;5047593;28;20025;-80
2023/07/31 03:00:18;;;;;;;5.97;4.40;;;17.80;92.00;;;;;;5052179;28;20369;-80
2023/07/31 03:02:44;;;;;;;8.20;4.20;;;18.00;91.90;;;;;;5037320;28;20064;-80
2023/07/31 03:05:10;;;;;;;5.50;4.00;;;18.00;91.70;;;;;;5035111;28;20102;-80
2023/07/31 03:07:35;;;;;;;10.98;4.75;;;18.10;91.50;;;;;;5053065;28;20328;-81
2023/07/31 03:10:01;;;;;;;7.68;4.30;;;18.10;91.40;;;;;;5035739;28;20025;-79
2023/07/31 03:12:27;;;;;;;10.02;4.72;;;18.20;91.30;;;;;;5053478;28;20114;-81
2023/07/31 03:14:53;;;;;;;9.48;4.40;;;18.20;91.20;;;;;;5056489;28;20029;-79
2023/07/31 03:17:19;;;;;;;10.20;4.68;;;18.20;91.20;;;;;;5052437;28;20393;-81
2023/07/31 03:19:45;;;;;;;9.38;4.55;;;18.30;91.20;;;;;;5035297;28;20482;-79
2023/07/31 03:22:11;;;;;;;7.28;4.38;;;18.40;91.20;;;;;;5054790;28;20529;-80
2023/07/31 03:24:37;;;;;;;7.82;4.57;;;18.40;91.20;;;;;;5052863;28;20090;-80
2023/07/31 03:27:03;;;;;;;9.65;4.22;;;18.50;91.10;;;;;;5051763;28;20148;-81
2023/07/31 03:29:29;;;;;;;9.75;4.93;;;18.50;91.00;;;;;;5052332;28;20580;-80
2023/07/31 03:31:55;;;;;;;9.70;5.07;;;18.60;90.90;;;;;;5055144;28;20159;-79
2023/07/31 03:34:21;;;;;;;8.23;4.40;;;18.70;90.70;;;;;;5056337;28;20021;-80
2023/07/31 03:36:47;;;;;;;5.35;4.03;;;18.70;90.40;;;;;;5054715;28;20028;-80
2023/07/31 03:39:13;;;;;;;7.90;4.80;;;18.80;90.10;;;;;;5055010;28;20056;-79
2023/07/31 03:41:39;;;;;;;8.10;4.38;;;18.80;89.40;;;;;;5054996;28;20031;-79
2023/07/31 03:44:04;;;;;;;5.95;4.30;;;18.90;89.00;;;;;;5054998;28;20032;-79
2023/07/31 03:46:30;;;;;;;8.73;4.47;;;18.90;88.80;;;;;;5057420;28;20445;-80
2023/07/31 03:48:56;;;;;;;9.30;4.35;;;19.00;89.50;;;;;;5051759;28;20097;-80
2023/07/31 03:51:22;;;;;;;6.75;4.50;;;19.10;89.30;;;;;;5044068;28;20429;-80
2023/07/31 03:53:48;;;;;;;7.82;4.63;;;19.10;89.20;;;;;;5050309;28;20382;-80
2023/07/31 03:56:14;;;;;;;7.95;4.85;;;19.10;88.60;;;;;;5055635;28;20021;-80
2023/07/31 03:58:40;;;;;;;6.10;4.53;;;19.20;88.00;;;;;;5055225;28;20482;-81
2023/07/31 04:01:06;;;;;;;8.82;4.85;;;19.30;88.10;;;;;;5044927;28;20059;-80
2023/07/31 04:03:32;;;;;;;6.93;4.68;;;19.30;87.90;;;;;;5043228;28;20021;-79
2023/07/31 04:05:58;;;;;;;7.72;4.90;;;19.40;88.40;;;;;;5060192;28;20036;-79
2023/07/31 04:08:24;;;;;;;9.80;4.35;;;19.40;88.50;;;;;;5056989;28;20151;-83
2023/07/31 04:10:50;;;;;;;13.30;5.00;;;19.60;87.70;;;;;;5051630;28;20355;-80
2023/07/31 04:13:16;;;;;;;6.00;4.53;;;19.60;87.10;;;;;;5044119;28;20074;-81
2023/07/31 04:15:42;;;;;;;8.50;4.57;;;19.70;87.30;;;;;;5037725;28;20497;-81
2023/07/31 04:18:08;;;;;;;10.85;5.75;;;19.80;87.00;;;;;;5054854;28;20044;-81
2023/07/31 04:20:34;;;;;;;14.07;5.13;;;19.80;87.40;;;;;;5036515;28;20125;-79
2023/07/31 04:23:00;;;;;;;10.23;5.80;;;19.90;86.90;;;;;;5036595;28;20512;-80
2023/07/31 04:25:26;;;;;;;8.25;5.03;;;19.90;86.70;;;;;;5054128;28;20544;-79
2023/07/31 04:27:52;;;;;;;8.52;4.50;;;19.90;86.20;;;;;;5054073;28;20047;-79
2023/07/31 04:30:18;;;;;;;8.82;5.88;;;20.00;85.80;;;;;;5036928;28;20070;-79
2023/07/31 04:32:43;;;;;;;9.20;5.85;;;20.10;85.90;;;;;;5056173;28;20021;-80
2023/07/31 04:35:10;;;;;;;8.13;4.50;;;20.10;85.20;;;;;;5054712;28;20033;-81
2023/07/31 04:37:36;;;;;;;6.80;4.95;;;20.20;84.90;;;;;;5036262;28;20087;-80
2023/07/31 04:40:02;;;;;;;12.45;4.78;;;20.30;84.60;;;;;;5053573;28;20037;-79
2023/07/31 04:42:28;;;;;;;9.07;4.78;;;20.30;84.20;;;;;;5053381;28;20036;-80
2023/07/31 04:44:54;;;;;;;9.57;4.97;;;20.40;84.70;;;;;;5053739;28;20032;-79
2023/07/31 04:47:20;;;;;;;8.98;4.53;;;20.40;84.20;;;;;;5053805;28;20382;-80
2023/07/31 04:49:45;;;;;;;8.02;4.50;;;20.40;83.80;;;;;;5036788;28;20017;-79
2023/07/31 04:52:11;;;;;;;10.45;4.38;;;20.50;84.00;;;;;;5050166;28;20035;-79
2023/07/31 04:54:37;;;;;;;6.13;4.30;;;20.50;84.00;;;;;;5068509;28;20021;-81
2023/07/31 04:57:03;;;;;;;11.40;4.78;;;20.50;83.30;;;;;;5067960;28;20037;-81
2023/07/31 04:59:31;;;;;;;9.73;4.20;;;20.60;82.80;;;;;;5066372;28;20025;-80
2023/07/31 05:01:57;;;;;;;10.00;4.32;;;20.80;83.20;;;;;;5040630;28;20036;-79
2023/07/31 05:04:23;;;;;;;5.53;4.10;;;21.30;82.00;;;;;;5047691;28;20041;-80
2023/07/31 05:06:49;;;;;;;8.57;4.50;;;22.00;80.20;;;;;;5053601;28;20478;-80
2023/07/31 05:09:15;;;;;;;6.43;4.07;;;23.10;77.30;;;;;;5038428;28;20033;-81
2023/07/31 05:11:42;;;;;;;9.50;3.88;;;24.10;74.00;;;;;;5048533;28;20401;-80
2023/07/31 05:14:09;;;;;;;7.13;4.00;;;25.00;70.80;;;;;;5062975;28;20048;-80
2023/07/31 05:16:34;;;;;;;8.40;3.83;;;25.90;68.50;;;;;;5047549;28;20085;-80
2023/07/31 05:19:00;;;;;;;7.25;3.75;;;26.90;66.00;;;;;;5046243;28;20335;-81
2023/07/31 05:21:26;;;;;;;6.20;4.13;;;27.80;62.50;;;;;;5041937;28;20022;-81
2023/07/31 05:23:53;;;;;;;10.32;3.63;;;28.50;60.00;;;;;;5046325;28;20110;-81
2023/07/31 05:26:19;;;;;;;5.28;3.40;;;29.10;58.70;;;;;;5045330;28;20041;-81
2023/07/31 05:28:45;;;;;;;8.25;3.35;;;29.40;56.80;;;;;;5052459;28;20047;-79
2023/07/31 05:31:11;;;;;;;4.53;3.35;;;29.80;55.60;;;;;;5023345;28;20042;-81
2023/07/31 05:33:37;;;;;;;6.13;3.25;;;30.30;54.10;;;;;;5047165;28;20484;-81
2023/07/31 05:36:03;;;;;;;9.67;3.57;;;30.90;52.70;;;;;;5040654;28;20035;-80
2023/07/31 05:38:29;;;;;;;3.50;3.17;;;31.50;51.80;;;;;;5034301;28;20063;-82
2023/07/31 05:40:55;;;;;;;5.32;2.75;;;31.80;49.90;;;;;;5041914;28;20025;-81
2023/07/31 05:43:21;;;;;;;8.63;3.47;;;32.30;49.20;;;;;;5041639;28;20043;-80
2023/07/31 05:45:47;;;;;;;7.90;2.97;;;32.60;48.20;;;;;;5047451;28;20039;-81
2023/07/31 05:48:13;;;;;;;11.27;3.53;;;32.90;47.40;;;;;;5022576;28;20076;-82
2023/07/31 05:50:39;;;;;;;6.50;2.63;;;33.30;47.30;;;;;;5021650;28;20052;-81
2023/07/31 05:53:07;;;;;;;6.07;2.67;;;34.30;47.10;;;;;;5050156;28;20033;-82
2023/07/31 05:55:34;;;;;;;4.53;2.28;;;34.60;45.40;;;;;;5031228;28;20152;-82
2023/07/31 05:58:00;;;;;;;5.68;2.72;;;34.70;43.60;;;;;;5042538;28;20582;-81
2023/07/31 06:00:26;;;;;;;4.72;2.40;;;35.60;44.90;;;;;;5054067;28;20515;-82
2023/07/31 06:02:52;;;;;;;9.82;2.78;;;35.80;43.10;;;;;;5039877;28;20108;-82
2023/07/31 06:05:18;;;;;;;6.73;3.20;;;36.60;42.50;;;;;;5062046;28;20103;-82
2023/07/31 06:07:44;;;;;;;5.43;2.70;;;37.30;41.10;;;;;;5063402;28;20024;-82
2023/07/31 06:10:09;;;;;;;7.03;2.60;;;37.90;39.60;;;;;;5067343;28;20254;-84
2023/07/31 06:12:36;;;;;;;4.77;1.97;;;38.40;39.70;;;;;;5070605;28;20264;-83
2023/07/31 06:15:02;;;;;;;;;;;38.80;37.40;;;;;;5065093;28;20265;-84
2023/07/31 06:17:29;;;;;;;5.30;2.58;;;38.70;39.10;;;;;;5041413;28;19916;-82
2023/07/31 06:19:55;;;;;;;3.22;2.10;;;;;;;;;;5026898;28;20395;-81
2023/07/31 06:22:22;;;;;;;2.17;1.95;;;;;;;;;;5040606;28;20092;-81
2023/07/31 06:24:48;;;;;;;7.38;2.10;;;;;;;;;;5041594;28;20021;-83
2023/07/31 06:27:14;;;;;;;5.57;2.22;;;;;;;;;;5037525;28;20025;-82
2023/07/31 06:29:40;;;;;;;6.43;2.67;;;38.50;36.90;;;;;;5037683;28;20029;-80
2023/07/31 06:32:07;;;;;;;6.00;2.90;;;38.60;36.70;;;;;;5023214;28;20132;-80
2023/07/31 06:34:33;;;;;;;;;;;39.10;36.30;;;;;;5034372;28;20045;-81
2023/07/31 06:36:59;;;;;;;;;;;;;;;;;;5042079;28;19944;-85
2023/07/31 06:39:25;;;;;;;5.38;1.90;;;;;;;;;;5036073;28;20390;-86
2023/07/31 06:41:51;;;;;;;4.25;1.90;;;;;;;;;;5040738;28;20021;-85
2023/07/31 06:44:17;;;;;;;;;;;;;;;;;;5046244;28;20036;-86
2023/07/31 06:46:43;;;;;;;3.80;1.98;;;;;;;;;;5048349;28;20266;-86
2023/07/31 06:49:09;;;;;;;;;;;;;;;;;;5025171;28;20021;-85
2023/07/31 06:51:36;;;;;;;2.53;1.88;;;;;;;;;;5049976;28;19913;-85
2023/07/31 06:54:02;;;;;;;5.25;2.55;;;39.70;38.50;;;;;;5028591;28;20024;-83
2023/07/31 06:56:28;;;;;;;5.93;2.00;;;;;;;;;;5038987;28;20020;-82
2023/07/31 06:58:55;;;;;;;4.35;2.65;;;;;;;;;;5037969;28;20083;-81
2023/07/31 07:01:22;;;;;;;3.70;1.98;;;;;;;;;;5015785;28;20033;-82
2023/07/31 07:03:50;;;;;;;5.13;2.33;;;;;;;;;;5033594;28;20030;-84
2023/07/31 07:06:16;;;;;;;2.88;1.83;;;;;;;;;;5065552;28;20021;-83
2023/07/31 07:08:43;;;;;;;6.13;2.30;;;;;;;;;;5057410;28;20093;-85
2023/07/31 07:11:09;;;;;;;3.88;2.20;;;;;;;;;;5054893;28;20025;-83
2023/07/31 07:13:35;;;;;;;;;;;;;;;;;;5069124;28;20021;-83
2023/07/31 07:16:01;;;;;;;5.72;1.90;;;;;;;;;;5058452;28;19911;-82
2023/07/31 07:18:27;;;;;;;4.63;1.75;;;;;;;;;;5068140;28;20029;-83
2023/07/31 07:20:57;;;;;;;1.95;1.30;;;41.80;33.20;;;;;;5053488;28;20116;-82
2023/07/31 07:23:22;;;;;;;4.03;1.73;;;42.60;30.50;;;;;;5068586;28;20021;-81
2023/07/31 07:25:48;;;;;;;;;;;42.10;30.90;;;;;;5069303;28;20441;-83
2023/07/31 07:28:14;;;;;;;4.95;1.73;;;42.30;32.70;;;;;;5058567;28;19985;-83
2023/07/31 07:30:40;;;;;;;;;;;42.60;31.50;;;;;;5064126;28;20048;-85
2023/07/31 07:33:06;;;;;;;3.78;1.42;;;43.30;32.90;;;;;;5047184;28;20380;-86
2023/07/31 07:35:36;;;;;;;2.60;1.23;;;44.10;30.00;;;;;;5044825;28;20013;-85
2023/07/31 07:38:05;;;;;;;3.53;1.67;;;43.70;29.50;;;;;;5051302;28;20037;-85
2023/07/31 07:40:31;;;;;;;3.42;1.85;;;43.00;30.00;;;;;;5075559;28;20039;-84
2023/07/31 07:42:59;;;;;;;4.38;1.70;;;43.40;30.00;;;;;;5035636;28;20024;-82
2023/07/31 07:45:26;;;;;;;4.35;1.73;;;;;;;;;;5035773;28;20025;-84
2023/07/31 07:47:52;;;;;;;3.83;1.65;;;;;;;;;;5033362;28;20154;-83
2023/07/31 07:50:18;;;;;;;2.58;1.00;;;44.10;30.00;;;;;;5050956;28;20060;-81
2023/07/31 07:52:44;;;;;;;3.08;1.20;;;44.30;28.70;;;;;;5054047;28;20049;-81
2023/07/31 07:55:10;;;;;;;5.25;1.58;;;43.70;29.30;;;;;;5059388;28;20056;-82
2023/07/31 07:57:36;;;;;;;;;;;43.70;29.70;;;;;;5061770;28;20036;-81
2023/07/31 08:00:02;;;;;;;3.25;1.55;;;44.00;30.90;;;;;;5063267;28;19908;-82
2023/07/31 08:02:28;;;;;;;4.72;2.17;;;44.20;29.90;;;;;;5025761;28;20029;-82
2023/07/31 08:04:54;;;;;;;3.92;2.70;;;44.60;29.70;;;;;;5052799;28;20582;-81
2023/07/31 08:07:20;;;;;;;2.33;1.50;;;44.30;29.70;;;;;;5054665;28;20032;-81
2023/07/31 08:09:46;;;;;;;4.43;1.70;;;44.70;29.70;;;;;;5054492;28;20063;-81
2023/07/31 08:12:11;;;;;;;4.70;1.80;;;44.90;29.10;;;;;;5033286;28;20029;-83
2023/07/31 08:14:37;;;;;;;1.73;1.15;;;44.40;29.00;;;;;;5046371;28;20036;-81
2023/07/31 08:17:04;;;;;;;4.72;1.60;;;43.90;29.50;;;;;;5057220;28;20028;-82
2023/07/31 08:19:30;;;;;;;5.85;1.35;;;44.20;29.60;;;;;;5047768;28;20017;-81
2023/07/31 08:21:56;;;;;;;6.38;2.50;;;44.20;29.50;;;;;;5044103;28;20035;-81
2023/07/31 08:24:22;;;;;;;2.33;1.70;;;44.00;29.30;;;;;;5047899;28;20108;-80
2023/07/31 08:26:48;;;;;;;8.18;2.13;;;43.70;29.50;;;;;;5032612;28;20462;-82
2023/07/31 08:29:14;;;;;;;5.03;1.85;;;43.70;29.70;;;;;;5038074;28;20013;-83
2023/07/31 08:31:40;;;;;;;4.32;1.73;;;44.00;29.90;;;;;;5028361;28;20040;-82
2023/07/31 08:34:06;;;;;;;2.20;1.52;;;44.20;29.50;;;;;;5048018;28;20017;-82
2023/07/31 08:36:32;;;;;;;4.85;1.85;;;44.30;29.40;;;;;;5058448;28;20075;-85
2023/07/31 08:38:57;;;;;;;2.80;1.55;;;43.80;29.40;;;;;;5050769;28;20032;-82
2023/07/31 08:41:24;;;;;;;7.18;1.83;;;43.60;29.60;;;;;;5070489;28;20016;-81
2023/07/31 08:43:51;;;;;;;4.93;1.58;;;43.80;30.20;;;;;;5066935;28;20028;-81
2023/07/31 08:46:19;;;;;;;3.88;1.63;;;44.20;29.80;;;;;;5071949;28;20017;-87
2023/07/31 08:48:47;;;;;;;5.80;1.77;;;44.60;29.30;;;;;;5055911;28;20025;-84
2023/07/31 08:51:14;;;;;;;2.97;1.95;;;;;;;;;;5060956;28;20043;-82
2023/07/31 08:53:40;;;;;;;2.63;2.30;;;44.60;29.40;;;;;;5067441;28;20092;-83
2023/07/31 08:56:07;;;;;;;4.55;1.75;;;45.60;28.60;;;;;;5054828;28;20119;-82
2023/07/31 08:58:34;;;;;;;3.60;1.70;;;45.80;28.60;;;;;;5052766;28;20089;-83
2023/07/31 09:01:05;;;;;;;3.65;1.58;;;45.90;28.50;;;;;;5053078;28;20012;-82
2023/07/31 09:03:35;;;;;;;3.92;1.50;;;45.90;28.40;;;;;;5036166;28;20119;-83
2023/07/31 09:06:03;;;;;;;4.25;1.85;;;45.80;28.60;;;;;;5036566;28;20043;-83
2023/07/31 09:08:31;;;;;;;2.28;1.70;;;45.90;28.70;;;;;;5049470;28;20379;-83
2023/07/31 09:11:05;;;;;;;3.33;1.55;;;46.20;28.40;;;;;;5056281;28;20017;-84
2023/07/31 09:13:32;;;;;;;3.63;1.58;;;45.80;28.60;;;;;;5056053;28;20021;-85
2023/07/31 09:15:58;;;;;;;1.67;1.27;;;44.60;28.60;;;;;;5060239;28;20447;-84
2023/07/31 09:18:24;;;;;;;6.00;1.70;;;44.20;28.90;;;;;;5061624;28;20167;-83
2023/07/31 09:21:02;;;;;;;6.55;2.10;;;43.70;28.90;;;;;;5061607;28;20054;-84
2023/07/31 09:23:42;;;;;;;3.47;1.70;;;43.70;29.40;;;;;;5056153;28;20013;-85
2023/07/31 09:26:08;;;;;;;2.40;1.73;;;43.70;29.30;;;;;;5058941;28;20451;-85
2023/07/31 09:28:34;;;;;;;3.72;1.70;;;43.60;29.50;;;;;;5051078;28;20048;-86
2023/07/31 09:30:59;;;;;;;3.50;1.50;;;43.40;29.10;;;;;;5054340;28;20021;-85
2023/07/31 09:33:25;;;;;;;2.83;1.67;;;42.80;29.80;;;;;;5055248;28;20036;-85
2023/07/31 09:35:52;;;;;;;3.95;1.63;;;43.00;29.90;;;;;;5036781;28;20043;-85
2023/07/31 09:38:18;;;;;;;4.88;1.73;;;43.40;29.40;;;;;;5041097;28;20036;-83
2023/07/31 09:40:48;;;;;;;6.82;2.15;;;43.50;29.40;;;;;;5054414;28;20013;-83
2023/07/31 09:43:21;;;;;;;6.03;2.80;;;43.80;29.20;;;;;;5053747;28;20363;-84
2023/07/31 09:45:47;;;;;;;2.63;1.73;;;43.90;29.60;;;;;;5068616;28;20061;-85
2023/07/31 09:48:18;;;;;;;2.58;1.67;;;44.50;28.90;;;;;;5071744;28;20111;-83
2023/07/31 09:50:46;;;;;;;2.80;1.55;;;44.20;28.40;;;;;;5066128;28;20074;-86
2023/07/31 09:53:12;;;;;;;2.47;1.92;;;43.80;28.70;;;;;;5044676;28;20032;-86
2023/07/31 09:55:40;;;;;;;3.83;2.25;;;42.80;28.90;;;;;;5062249;28;20474;-84
2023/07/31 09:58:08;;;;;;;3.67;1.95;;;42.30;29.10;;;;;;5053423;28;20075;-86
2023/07/31 10:00:35;;;;;;;2.15;1.95;;;41.90;29.80;;;;;;5048751;28;20024;-86
2023/07/31 10:03:04;;;;;;;3.80;1.67;;;42.20;29.40;;;;;;5038646;28;20502;-85
2023/07/31 10:05:34;;;;;;;1.90;1.73;;;42.30;29.10;;;;;;5054178;28;20414;-87
2023/07/31 10:08:00;;;;;;;4.97;1.77;;;42.10;29.00;;;;;;5050793;28;20030;-84
2023/07/31 10:10:27;;;;;;;3.38;1.85;;;42.10;29.30;;;;;;5036833;28;20116;-84
2023/07/31 10:12:56;;;;;;;3.15;1.70;;;42.40;29.80;;;;;;5021572;28;20540;-84
2023/07/31 10:15:22;;;;;;;2.08;1.73;;;43.20;29.50;;;;;;5055312;28;20463;-84
2023/07/31 10:17:49;;;;;;;4.22;1.98;;;43.10;29.20;;;;;;5055210;28;20068;-84
2023/07/31 10:20:17;;;;;;;4.40;2.20;;;42.50;29.80;;;;;;5061604;28;20360;-84
2023/07/31 10:22:45;;;;;;;4.57;4.07;;;42.20;29.80;;;;;;5067793;28;20364;-82
2023/07/31 10:25:12;;;;;;;6.28;1.98;;;;;;;;;;5056161;28;20055;-83
2023/07/31 10:27:42;;;;;;;4.90;3.30;;;42.10;30.10;;;;;;5034369;28;20025;-83
2023/07/31 10:30:15;;;;;;;5.25;2.25;;;41.70;30.30;;;;;;5049697;28;20097;-83
2023/07/31 10:32:43;;;;;;;2.45;1.90;;;42.10;30.40;;;;;;5037606;28;20021;-83
2023/07/31 10:35:10;;;;;;;4.35;2.30;;;41.30;30.00;;;;;;5056181;28;20024;-83
2023/07/31 10:37:43;;;;;;;4.35;1.95;;;39.50;30.30;;;;;;5058664;28;20036;-85
2023/07/31 10:40:19;;;;;;;6.18;2.67;;;37.30;33.00;;;;;;5039912;28;20028;-82
2023/07/31 10:42:48;;;;;;;3.17;2.28;;;35.60;33.80;;;;;;5043727;28;20037;-83
2023/07/31 10:45:23;;;;;;;10.32;3.40;;;34.10;36.20;;;;;;5066276;28;20025;-82
2023/07/31 10:47:49;;;;;;;6.57;4.30;;;33.20;37.60;;;;;;5072582;28;20343;-81
2023/07/31 10:50:21;;;;;;;3.55;2.35;;;32.40;37.90;;;;;;5074509;28;20029;-82
2023/07/31 10:52:51;;;;;;;4.70;3.10;;;31.90;38.50;;;;;;5039300;28;20031;-82
2023/07/31 10:55:28;;;;;;;4.72;2.50;;;31.30;39.60;;;;;;5072982;28;20044;-83
2023/07/31 10:57:55;;;;;;;4.55;2.97;;;;;;;;;;5067257;28;20028;-84
2023/07/31 11:00:24;;;;;;;4.82;2.30;;;;;;;;;;5052930;28;20115;-83
2023/07/31 11:03:17;;;;;;;4.68;2.50;;;30.90;40.20;;;;;;5049438;28;20021;-82
2023/07/31 11:05:53;;;;;;;4.25;3.28;;;30.40;40.90;;;;;;5035454;28;20037;-83
2023/07/31 11:08:26;;;;;;;7.33;3.10;;;29.90;42.20;;;;;;5062390;28;20152;-83
2023/07/31 11:11:05;;;;;;;4.45;2.78;;;29.40;42.00;;;;;;5041795;28;20281;-83
2023/07/31 11:13:33;;;;;;;11.55;4.07;;;29.00;42.70;;;;;;5060552;28;20355;-84
2023/07/31 11:16:00;;;;;;;7.32;2.92;;;28.70;43.50;;;;;;5058290;28;20025;-81
2023/07/31 11:18:27;;;;;;;6.07;2.92;;;28.60;43.20;;;;;;5037822;28;20039;-83
2023/07/31 11:20:53;;;;;;;6.80;2.80;;;28.60;43.90;;;;;;5056374;28;20092;-83
2023/07/31 11:23:21;;;;;;;5.57;2.65;;;28.70;44.00;;;;;;5056526;28;20528;-82
2023/07/31 11:25:47;;;;;;;7.15;2.78;;;28.90;43.20;;;;;;5043917;28;20064;-82
2023/07/31 11:28:15;;;;;;;5.00;2.27;;;29.20;43.70;;;;;;5024293;28;20029;-84
2023/07/31 11:30:43;;;;;;;4.18;2.47;;;29.40;43.00;;;;;;5029657;28;20036;-82
2023/07/31 11:33:11;;;;;;;5.88;2.75;;;29.40;42.70;;;;;;5023589;28;20099;-80
2023/07/31 11:35:44;;;;;;;3.30;2.83;;;29.50;43.40;;;;;;5044885;28;20078;-81
2023/07/31 11:38:30;;;;;;;4.13;2.55;;;29.50;42.70;;;;;;5021636;28;20044;-83
2023/07/31 11:41:04;;;;;;;4.43;3.13;;;29.30;42.50;;;;;;5019985;28;20079;-82
2023/07/31 11:43:32;;;;;;;8.90;3.35;;;29.30;43.90;;;;;;5034075;28;20028;-81
2023/07/31 11:46:03;;;;;;;3.60;2.83;;;29.40;43.90;;;;;;5045003;28;20021;-81
2023/07/31 11:48:33;;;;;;;5.25;2.85;;;29.50;43.00;;;;;;5022255;28;20092;-80
2023/07/31 11:51:04;;;;;;;4.97;2.72;;;29.60;43.50;;;;;;5032839;28;20045;-80
2023/07/31 11:53:43;;;;;;;5.30;2.65;;;29.70;42.60;;;;;;5046270;28;20395;-81
2023/07/31 11:56:13;;;;;;;5.70;3.22;;;29.80;43.40;;;;;;5031082;28;20055;-83
2023/07/31 11:58:40;;;;;;;5.30;4.25;;;29.80;43.70;;;;;;5046540;28;20059;-81
2023/07/31 12:01:07;;;;;;;6.28;4.47;;;29.70;43.50;;;;;;5050102;28;20017;-83
2023/07/31 12:03:34;;;;;;;3.72;2.85;;;29.70;43.50;;;;;;5021802;28;20070;-83
2023/07/31 12:06:00;;;;;;;7.72;3.83;;;29.60;43.30;;;;;;5044155;28;20058;-83
2023/07/31 12:08:26;;;;;;;8.93;4.20;;;29.40;43.40;;;;;;5054879;28;20021;-81
2023/07/31 12:10:53;;;;;;;6.67;3.77;;;29.10;44.10;;;;;;5028704;28;20025;-84
2023/07/31 12:13:21;;;;;;;;;;;28.70;43.70;;;;;;5065088;28;20021;-83
2023/07/31 12:15:47;;;;;;;8.38;3.47;;;28.30;43.50;;;;;;5058589;28;19904;-81
2023/07/31 12:18:18;;;;;;;3.75;3.22;;;27.90;45.20;;;;;;5031284;28;20522;-82
2023/07/31 12:20:46;;;;;;;8.10;3.70;;;27.70;46.00;;;;;;5056036;28;20017;-83
2023/07/31 12:23:53;;;;;;;7.05;3.22;;;27.50;46.60;;;;;;5067623;28;20091;-82
2023/07/31 12:26:15;;;;;;;5.60;3.30;;;27.40;48.30;;;;;;5053380;28;20474;-80
2023/07/31 12:28:49;;;;;;;4.68;3.60;;;27.20;48.30;;;;;;5061557;28;20378;-82
2023/07/31 12:31:21;;;;;;;7.20;3.40;;;27.10;48.50;;;;;;5060569;28;20333;-84
2023/07/31 12:33:49;;;;;;;5.13;3.58;;;27.00;49.60;;;;;;5037438;28;20421;-83
2023/07/31 12:36:18;;;;;;;8.23;3.10;;;26.90;50.10;;;;;;5061959;28;20381;-85
2023/07/31 12:38:44;;;;;;;10.23;3.78;;;26.80;49.70;;;;;;5041031;28;20040;-84
2023/07/31 12:41:10;;;;;;;5.57;3.13;;;26.70;49.90;;;;;;5060878;28;20027;-85
2023/07/31 12:43:37;;;;;;;7.72;3.53;;;26.60;49.50;;;;;;5034686;28;20259;-83
2023/07/31 12:46:03;;;;;;;;;;;26.70;50.10;;;;;;5053114;28;20028;-83
2023/07/31 12:48:29;;;;;;;6.83;2.93;;;26.70;49.40;;;;;;5048223;28;19905;-81
2023/07/31 12:50:55;;;;;;;6.93;3.20;;;26.80;49.30;;;;;;5060889;28;20036;-81
2023/07/31 12:53:21;;;;;;;5.20;3.10;;;26.90;49.80;;;;;;5035129;28;20022;-80
2023/07/31 12:55:47;;;;;;;5.15;3.22;;;27.10;49.60;;;;;;5057280;28;20087;-80
2023/07/31 12:58:13;;;;;;;10.05;3.80;;;27.20;49.10;;;;;;5069292;28;20184;-83